createdAt,value
2022-12-29T00:00:21.042Z,23.53
2022-12-29T00:02:48.304Z,23.63
2022-12-29T00:05:15.707Z,27.30
2022-12-29T00:07:42.603Z,21.87
2022-12-29T00:10:09.738Z,20.50
2022-12-29T00:12:56.933Z,24.20
2022-12-29T00:15:38.834Z,21.47
2022-12-29T00:18:07.050Z,22.93
2022-12-29T00:20:54.877Z,22.23
2022-12-29T00:23:40.623Z,23.27
2022-12-29T00:26:34.995Z,23.27
2022-12-29T00:29:20.426Z,23.70
2022-12-29T00:32:05.846Z,22.30
2022-12-29T00:34:51.117Z,24.30
2022-12-29T00:37:38.557Z,27.73
2022-12-29T00:40:24.926Z,23.87
2022-12-29T00:43:10.358Z,27.27
2022-12-29T00:45:37.266Z,22.07
2022-12-29T00:48:04.423Z,22.13
2022-12-29T00:50:31.415Z,22.87
2022-12-29T00:52:58.349Z,26.37
2022-12-29T00:55:25.317Z,28.83
2022-12-29T00:57:52.225Z,27.07
2022-12-29T01:00:19.229Z,28.00
2022-12-29T01:02:46.223Z,23.80
2022-12-29T01:05:13.324Z,21.93
2022-12-29T01:07:40.259Z,23.90
2022-12-29T01:10:10.748Z,22.57
2022-12-29T01:12:44.879Z,29.53
2022-12-29T01:15:15.623Z,26.63
2022-12-29T01:17:42.970Z,24.93
2022-12-29T01:20:11.726Z,25.60
2022-12-29T01:22:38.791Z,21.77
2022-12-29T01:25:07.062Z,23.10
2022-12-29T01:27:34.348Z,25.83
2022-12-29T01:30:01.627Z,22.07
2022-12-29T01:32:28.526Z,21.10
2022-12-29T01:34:55.379Z,25.73
2022-12-29T01:37:22.393Z,20.67
2022-12-29T01:39:49.324Z,18.90
2022-12-29T01:42:20.357Z,16.70
2022-12-29T01:44:56.074Z,19.20
2022-12-29T01:47:39.940Z,21.43
2022-12-29T01:50:26.292Z,20.77
2022-12-29T01:53:15.391Z,23.80
2022-12-29T01:55:51.298Z,20.20
2022-12-29T01:58:21.496Z,19.73
2022-12-29T02:00:49.667Z,21.53
2022-12-29T02:03:18.528Z,21.07
2022-12-29T02:06:13.268Z,21.63
2022-12-29T02:08:42.056Z,21.43
2022-12-29T02:11:09.063Z,19.07
2022-12-29T02:13:36.005Z,21.97
2022-12-29T02:16:40.195Z,19.53
2022-12-29T02:19:25.043Z,19.53
2022-12-29T02:22:20.728Z,19.53
2022-12-29T02:25:28.475Z,20.47
2022-12-29T02:28:18.423Z,18.37
2022-12-29T02:31:26.222Z,20.73
2022-12-29T02:34:05.258Z,17.73
2022-12-29T02:36:51.537Z,17.70
2022-12-29T02:39:31.995Z,17.77
2022-12-29T02:42:16.121Z,17.80
2022-12-29T02:45:02.283Z,15.27
2022-12-29T02:47:43.241Z,19.43
2022-12-29T02:50:46.516Z,16.73
2022-12-29T02:53:17.457Z,16.67
2022-12-29T02:55:52.630Z,15.23
2022-12-29T02:58:23.516Z,15.80
2022-12-29T03:01:21.184Z,19.60
2022-12-29T03:04:42.065Z,18.87
2022-12-29T03:07:24.202Z,13.20
2022-12-29T03:10:18.531Z,16.33
2022-12-29T03:13:26.684Z,18.47
2022-12-29T03:16:16.309Z,18.77
2022-12-29T03:18:48.762Z,15.73
2022-12-29T03:21:53.988Z,17.30
2022-12-29T03:24:26.774Z,18.60
2022-12-29T03:26:59.179Z,17.23
2022-12-29T03:29:30.961Z,17.37
2022-12-29T03:31:59.476Z,17.07
2022-12-29T03:34:27.564Z,15.00
2022-12-29T03:37:12.401Z,15.50
2022-12-29T03:39:39.697Z,16.73
2022-12-29T03:42:11.703Z,18.73
2022-12-29T03:44:42.667Z,17.67
2022-12-29T03:47:12.451Z,16.53
2022-12-29T03:49:39.959Z,17.23
2022-12-29T03:52:07.140Z,17.10
2022-12-29T03:54:34.293Z,16.63
2022-12-29T03:57:01.289Z,16.50
2022-12-29T03:59:28.350Z,15.60
2022-12-29T04:01:55.934Z,15.47
2022-12-29T04:04:23.316Z,12.50
2022-12-29T04:06:50.423Z,15.67
2022-12-29T04:09:17.520Z,20.23
2022-12-29T04:11:44.653Z,14.70
2022-12-29T04:14:11.571Z,15.13
2022-12-29T04:16:39.746Z,13.97
2022-12-29T04:19:08.233Z,17.47
2022-12-29T04:21:35.595Z,14.67
2022-12-29T04:24:02.712Z,15.03
2022-12-29T04:26:29.642Z,12.63
2022-12-29T04:28:56.572Z,15.27
2022-12-29T04:31:23.605Z,10.53
2022-12-29T04:33:50.651Z,14.73
2022-12-29T04:36:17.596Z,15.43
2022-12-29T04:38:45.818Z,13.33
2022-12-29T04:41:12.709Z,13.67
2022-12-29T04:43:39.661Z,12.50
2022-12-29T04:46:07.043Z,15.50
2022-12-29T04:48:34.480Z,13.20
2022-12-29T04:51:01.534Z,12.83
2022-12-29T04:53:28.488Z,12.60
2022-12-29T04:55:55.554Z,15.73
2022-12-29T04:58:23.641Z,11.57
2022-12-29T05:00:52.710Z,12.00
2022-12-29T05:03:19.862Z,13.60
2022-12-29T05:05:46.991Z,12.93
2022-12-29T05:08:13.851Z,13.07
2022-12-29T05:10:40.932Z,13.17
2022-12-29T05:13:08.108Z,11.60
2022-12-29T05:15:35.153Z,15.47
2022-12-29T05:18:02.055Z,14.27
2022-12-29T05:20:28.969Z,12.70
2022-12-29T05:22:56.019Z,15.33
2022-12-29T05:25:22.969Z,16.30
2022-12-29T05:27:49.855Z,11.70
2022-12-29T05:30:16.834Z,12.00
2022-12-29T05:32:46.310Z,11.23
2022-12-29T05:35:13.847Z,12.30
2022-12-29T05:37:41.523Z,10.33
2022-12-29T05:40:09.537Z,12.47
2022-12-29T05:42:36.442Z,11.27
2022-12-29T05:45:03.870Z,10.50
2022-12-29T05:47:30.842Z,11.20
2022-12-29T05:49:57.933Z,13.03
2022-12-29T05:52:24.833Z,13.40
2022-12-29T05:54:52.016Z,14.90
2022-12-29T05:57:18.938Z,14.73
2022-12-29T05:59:45.934Z,12.87
2022-12-29T06:02:12.956Z,12.57
2022-12-29T06:04:39.951Z,12.70
2022-12-29T06:07:06.904Z,12.40
2022-12-29T06:09:34.153Z,14.53
2022-12-29T06:12:01.081Z,10.70
2022-12-29T06:14:27.997Z,10.83
2022-12-29T06:16:54.915Z,9.60
2022-12-29T06:19:21.784Z,12.27
2022-12-29T06:21:48.781Z,13.27
2022-12-29T06:24:15.673Z,11.60
2022-12-29T06:26:42.919Z,13.37
2022-12-29T06:29:09.923Z,13.10
2022-12-29T06:31:37.187Z,13.13
2022-12-29T06:34:08.250Z,10.83
2022-12-29T06:36:35.814Z,10.47
2022-12-29T06:39:02.782Z,11.87
2022-12-29T06:41:32.395Z,13.40
2022-12-29T06:43:59.592Z,10.50
2022-12-29T06:46:26.515Z,14.63
2022-12-29T06:48:53.429Z,13.97
2022-12-29T06:51:20.343Z,12.23
2022-12-29T06:53:47.219Z,15.10
2022-12-29T06:56:14.195Z,13.83
2022-12-29T06:58:41.125Z,13.17
2022-12-29T07:01:08.152Z,12.70
2022-12-29T07:03:35.087Z,16.40
2022-12-29T07:06:02.169Z,13.60
2022-12-29T07:08:29.103Z,17.27
2022-12-29T07:10:55.984Z,14.27
2022-12-29T07:13:22.880Z,27.33
2022-12-29T07:15:49.751Z,20.53
2022-12-29T07:18:16.688Z,19.47
2022-12-29T07:20:44.423Z,18.20
2022-12-29T07:23:11.608Z,17.70
2022-12-29T07:25:38.621Z,13.97
2022-12-29T07:28:05.697Z,12.33
2022-12-29T07:30:33.059Z,12.30
2022-12-29T07:33:00.213Z,14.47
2022-12-29T07:35:27.132Z,13.37
2022-12-29T07:37:54.016Z,13.37
2022-12-29T07:40:20.953Z,12.10
2022-12-29T07:42:47.945Z,17.53
2022-12-29T07:45:14.913Z,16.60
2022-12-29T07:47:44.155Z,16.53
2022-12-29T07:50:11.097Z,14.60
2022-12-29T07:52:38.146Z,15.10
2022-12-29T07:55:05.646Z,15.50
2022-12-29T07:57:35.693Z,16.70
2022-12-29T08:00:04.583Z,21.30
2022-12-29T08:02:31.676Z,15.67
2022-12-29T08:04:58.659Z,17.60
2022-12-29T08:07:25.628Z,21.03
2022-12-29T08:09:52.513Z,14.17
2022-12-29T08:12:19.876Z,14.23
2022-12-29T08:14:46.905Z,16.90
2022-12-29T08:17:13.907Z,24.33
2022-12-29T08:19:41.150Z,19.70
2022-12-29T08:22:08.125Z,20.37
2022-12-29T08:24:35.008Z,19.20
2022-12-29T08:27:10.889Z,25.13
2022-12-29T08:29:42.921Z,16.73
2022-12-29T08:32:09.831Z,22.13
2022-12-29T08:34:36.866Z,20.30
2022-12-29T08:37:03.885Z,19.47
2022-12-29T08:39:30.857Z,20.47
2022-12-29T08:41:57.803Z,18.50
2022-12-29T08:44:25.160Z,17.53
2022-12-29T08:46:52.089Z,20.30
2022-12-29T08:49:18.992Z,19.93
2022-12-29T08:51:45.955Z,20.67
2022-12-29T08:54:13.949Z,19.57
2022-12-29T08:56:40.985Z,19.67
2022-12-29T08:59:07.946Z,20.87
2022-12-29T09:01:37.360Z,16.93
2022-12-29T09:04:14.696Z,17.23
2022-12-29T09:06:42.317Z,16.90
2022-12-29T09:09:09.314Z,14.03
2022-12-29T09:11:36.271Z,18.57
2022-12-29T09:14:03.599Z,16.87
2022-12-29T09:16:30.853Z,18.37
2022-12-29T09:18:57.929Z,16.80
2022-12-29T09:21:25.149Z,16.63
2022-12-29T09:23:52.124Z,17.50
2022-12-29T09:26:19.343Z,14.30
2022-12-29T09:28:46.967Z,15.67
2022-12-29T09:31:14.579Z,14.30
2022-12-29T09:33:41.511Z,15.07
2022-12-29T09:36:10.049Z,14.93
2022-12-29T09:38:37.537Z,13.40
2022-12-29T09:41:44.696Z,16.30
2022-12-29T09:44:47.530Z,11.20
2022-12-29T09:47:17.336Z,13.30
2022-12-29T09:49:58.059Z,14.20
2022-12-29T09:52:31.783Z,11.57
2022-12-29T09:55:24.276Z,14.43
2022-12-29T09:58:06.394Z,11.80
2022-12-29T10:00:58.614Z,14.50
2022-12-29T10:03:33.705Z,10.40
2022-12-29T10:06:56.445Z,13.13
2022-12-29T10:09:44.576Z,11.67
2022-12-29T10:12:44.702Z,11.93
2022-12-29T10:15:39.378Z,13.83
2022-12-29T10:18:27.730Z,14.63
2022-12-29T10:21:24.873Z,12.20
2022-12-29T10:23:56.189Z,13.97
2022-12-29T10:26:42.731Z,14.50
2022-12-29T10:29:21.905Z,15.27
2022-12-29T10:32:26.272Z,16.17
2022-12-29T10:34:59.299Z,15.80
2022-12-29T10:37:46.349Z,14.50
2022-12-29T10:40:44.476Z,17.30
2022-12-29T10:43:30.991Z,15.47
2022-12-29T10:46:09.713Z,16.20
2022-12-29T10:48:39.769Z,15.70
2022-12-29T10:51:09.679Z,17.10
2022-12-29T10:53:44.955Z,15.57
2022-12-29T10:56:45.912Z,14.77
2022-12-29T10:59:34.602Z,12.90
2022-12-29T11:02:27.756Z,11.80
2022-12-29T11:05:06.522Z,11.27
2022-12-29T11:07:33.492Z,14.23
2022-12-29T11:10:41.790Z,12.03
2022-12-29T11:13:25.996Z,11.93
2022-12-29T11:15:53.453Z,12.73
2022-12-29T11:18:33.883Z,17.73
2022-12-29T11:21:03.837Z,12.90
2022-12-29T11:23:41.204Z,11.47
2022-12-29T11:26:21.531Z,14.60
2022-12-29T11:29:16.794Z,11.17
2022-12-29T11:32:00.083Z,14.00
2022-12-29T11:34:34.580Z,13.53
2022-12-29T11:37:07.765Z,12.10
2022-12-29T11:39:39.045Z,12.53
2022-12-29T11:42:13.925Z,13.33
2022-12-29T11:44:46.611Z,17.07
2022-12-29T11:47:32.401Z,14.77
2022-12-29T11:50:06.611Z,16.07
2022-12-29T11:52:40.267Z,13.50
2022-12-29T11:55:20.587Z,19.57
2022-12-29T11:57:48.051Z,16.30
2022-12-29T12:00:22.201Z,18.63
2022-12-29T12:03:03.612Z,16.23
2022-12-29T12:05:57.444Z,16.50
2022-12-29T12:08:52.646Z,16.23
2022-12-29T12:11:43.218Z,16.10
2022-12-29T12:14:19.221Z,16.90
2022-12-29T12:16:58.324Z,16.07
2022-12-29T12:19:44.287Z,25.37
2022-12-29T12:22:33.013Z,20.70
2022-12-29T12:25:19.334Z,16.60
2022-12-29T12:28:00.100Z,19.63
2022-12-29T12:30:37.389Z,15.90
2022-12-29T12:33:21.276Z,14.57
2022-12-29T12:36:41.685Z,16.10
2022-12-29T12:40:00.243Z,17.90
2022-12-29T12:42:49.677Z,18.37
2022-12-29T12:46:05.752Z,18.00
2022-12-29T12:48:54.180Z,16.23
2022-12-29T12:51:59.455Z,18.47
2022-12-29T12:54:44.073Z,21.10
2022-12-29T12:57:29.238Z,19.90
2022-12-29T13:00:12.791Z,23.00
2022-12-29T13:02:54.743Z,19.97
2022-12-29T13:05:26.991Z,18.80
2022-12-29T13:08:27.301Z,20.83
2022-12-29T13:11:02.994Z,22.90
2022-12-29T13:13:51.978Z,19.83
2022-12-29T13:16:43.583Z,18.53
2022-12-29T13:20:01.138Z,20.07
2022-12-29T13:22:49.295Z,23.53
2022-12-29T13:25:49.687Z,22.90
2022-12-29T13:29:17.391Z,25.77
2022-12-29T13:32:19.224Z,19.97
2022-12-29T13:35:11.879Z,20.07
2022-12-29T13:37:51.516Z,20.43
2022-12-29T13:40:25.933Z,22.40
2022-12-29T13:42:54.334Z,20.07
2022-12-29T13:45:25.792Z,22.80
2022-12-29T13:48:18.386Z,23.13
2022-12-29T13:50:56.300Z,23.07
2022-12-29T13:53:54.000Z,23.23
2022-12-29T13:56:43.540Z,23.13
2022-12-29T13:59:37.137Z,22.27
2022-12-29T14:02:13.208Z,24.20
2022-12-29T14:05:04.947Z,21.17
2022-12-29T14:07:38.873Z,22.30
2022-12-29T14:10:07.250Z,23.93
2022-12-29T14:12:44.171Z,22.90
2022-12-29T14:15:10.983Z,21.83
2022-12-29T14:17:41.161Z,21.17
2022-12-29T14:20:21.797Z,22.80
2022-12-29T14:23:11.270Z,26.40
2022-12-29T14:26:07.106Z,23.67
2022-12-29T14:28:35.255Z,23.70
2022-12-29T14:31:27.130Z,23.10
2022-12-29T14:34:12.531Z,22.07
2022-12-29T14:37:02.761Z,20.00
2022-12-29T14:39:46.001Z,22.53
2022-12-29T14:42:14.031Z,23.37
2022-12-29T14:44:58.278Z,22.00
2022-12-29T14:47:31.355Z,18.67
2022-12-29T14:50:12.196Z,21.30
2022-12-29T14:53:04.075Z,21.87
2022-12-29T14:55:55.341Z,27.43
2022-12-29T14:58:29.803Z,25.40
2022-12-29T15:00:57.907Z,22.13
2022-12-29T15:03:47.585Z,26.63
2022-12-29T15:06:19.769Z,28.67
2022-12-29T15:09:21.379Z,22.33
2022-12-29T15:12:37.145Z,24.03
2022-12-29T15:15:28.650Z,21.23
2022-12-29T15:17:57.056Z,24.50
2022-12-29T15:20:29.678Z,22.40
2022-12-29T15:23:07.528Z,23.60
2022-12-29T15:25:34.472Z,23.43
2022-12-29T15:28:05.403Z,28.10
2022-12-29T15:30:32.587Z,21.53
2022-12-29T15:32:59.651Z,26.80
2022-12-29T15:35:32.937Z,25.40
2022-12-29T15:38:01.221Z,25.93
2022-12-29T15:40:33.710Z,24.27
2022-12-29T15:43:27.409Z,27.30
2022-12-29T15:45:56.152Z,28.03
2022-12-29T15:48:25.403Z,24.93
2022-12-29T15:50:52.997Z,24.27
2022-12-29T15:53:29.042Z,27.00
2022-12-29T15:56:08.178Z,23.60
2022-12-29T15:58:51.289Z,27.63
2022-12-29T16:01:28.850Z,28.17
2022-12-29T16:03:56.025Z,35.33
2022-12-29T16:06:36.102Z,34.00
2022-12-29T16:09:08.247Z,29.00
2022-12-29T16:11:48.968Z,26.83
2022-12-29T16:14:21.604Z,33.10
2022-12-29T16:16:50.160Z,29.60
2022-12-29T16:19:33.241Z,31.83
2022-12-29T16:22:03.451Z,31.00
2022-12-29T16:24:34.343Z,30.93
2022-12-29T16:27:08.890Z,27.60
2022-12-29T16:29:36.823Z,30.97
2022-12-29T16:32:04.306Z,32.47
2022-12-29T16:34:44.039Z,26.10
2022-12-29T16:37:37.100Z,31.70
2022-12-29T16:40:20.573Z,29.77
2022-12-29T16:42:52.136Z,27.87
2022-12-29T16:45:19.542Z,30.10
2022-12-29T16:48:08.420Z,29.67
2022-12-29T16:50:38.752Z,27.23
2022-12-29T16:53:07.635Z,28.83
2022-12-29T16:55:34.726Z,33.43
2022-12-29T16:58:01.746Z,33.00
2022-12-29T17:00:38.084Z,31.90
2022-12-29T17:03:05.179Z,27.70
2022-12-29T17:05:32.159Z,31.10
2022-12-29T17:08:02.119Z,25.27
2022-12-29T17:10:47.855Z,28.50
2022-12-29T17:13:14.795Z,29.10
2022-12-29T17:15:41.779Z,33.20
2022-12-29T17:18:13.823Z,28.37
2022-12-29T17:20:42.212Z,33.13
2022-12-29T17:23:19.868Z,28.60
2022-12-29T17:25:55.238Z,27.27
2022-12-29T17:28:25.048Z,30.43
2022-12-29T17:30:55.760Z,25.57
2022-12-29T17:33:22.837Z,23.57
2022-12-29T17:35:55.121Z,22.50
2022-12-29T17:38:32.429Z,23.40
2022-12-29T17:40:59.593Z,23.67
2022-12-29T17:43:30.076Z,22.97
2022-12-29T17:46:01.713Z,18.83
2022-12-29T17:48:28.610Z,22.17
2022-12-29T17:50:58.037Z,22.00
2022-12-29T17:53:29.616Z,21.37
2022-12-29T17:55:56.690Z,23.80
2022-12-29T17:58:29.659Z,23.70
2022-12-29T18:00:59.988Z,21.43
2022-12-29T18:03:32.433Z,23.20
2022-12-29T18:06:00.410Z,21.90
2022-12-29T18:08:29.419Z,19.47
2022-12-29T18:10:57.257Z,28.20
2022-12-29T18:13:39.337Z,21.97
2022-12-29T18:16:13.777Z,24.87
2022-12-29T18:18:40.899Z,20.90
2022-12-29T18:21:19.692Z,22.30
2022-12-29T18:23:47.453Z,21.50
2022-12-29T18:26:25.462Z,22.00
2022-12-29T18:28:54.935Z,20.73
2022-12-29T18:31:26.247Z,20.77
2022-12-29T18:33:54.696Z,23.27
2022-12-29T18:36:22.186Z,26.13
2022-12-29T18:38:50.673Z,25.87
2022-12-29T18:41:29.048Z,30.83
2022-12-29T18:43:56.783Z,26.67
2022-12-29T18:46:24.080Z,25.83
2022-12-29T18:48:52.680Z,26.77
2022-12-29T18:51:23.161Z,31.07
2022-12-29T18:53:50.799Z,25.93
2022-12-29T18:56:17.777Z,28.37
2022-12-29T18:58:44.747Z,26.57
2022-12-29T19:01:26.694Z,27.00
2022-12-29T19:03:54.227Z,28.40
2022-12-29T19:06:21.797Z,24.10
2022-12-29T19:08:49.028Z,24.87
2022-12-29T19:11:16.158Z,32.23
2022-12-29T19:13:43.062Z,24.80
2022-12-29T19:16:20.546Z,29.17
2022-12-29T19:19:02.390Z,29.13
2022-12-29T19:21:35.068Z,26.10
2022-12-29T19:24:01.943Z,32.13
2022-12-29T19:26:36.623Z,27.40
2022-12-29T19:29:06.117Z,27.53
2022-12-29T19:31:33.719Z,26.67
2022-12-29T19:34:03.006Z,27.63
2022-12-29T19:36:30.029Z,24.47
2022-12-29T19:38:57.048Z,25.07
2022-12-29T19:41:24.580Z,28.07
2022-12-29T19:43:51.609Z,26.30
2022-12-29T19:46:20.614Z,28.77
2022-12-29T19:48:47.685Z,32.53
2022-12-29T19:51:17.161Z,30.87
2022-12-29T19:53:45.940Z,26.97
2022-12-29T19:56:14.380Z,27.40
2022-12-29T19:58:46.927Z,32.73
2022-12-29T20:01:21.702Z,33.03
2022-12-29T20:03:49.892Z,28.73
2022-12-29T20:06:17.689Z,30.83
2022-12-29T20:08:44.864Z,30.03
2022-12-29T20:11:15.650Z,29.97
2022-12-29T20:13:43.862Z,29.70
2022-12-29T20:16:16.620Z,31.57
2022-12-29T20:18:44.149Z,27.17
2022-12-29T20:21:18.764Z,28.87
2022-12-29T20:23:47.097Z,29.80
2022-12-29T20:26:29.163Z,30.80
2022-12-29T20:28:58.160Z,31.03
2022-12-29T20:31:30.487Z,30.10
2022-12-29T20:33:57.757Z,31.00
2022-12-29T20:36:31.761Z,27.63
2022-12-29T20:39:01.650Z,27.67
2022-12-29T20:41:30.912Z,27.13
2022-12-29T20:43:58.156Z,29.87
2022-12-29T20:46:33.736Z,32.13
2022-12-29T20:49:04.018Z,29.50
2022-12-29T20:51:59.220Z,44.40
2022-12-29T20:54:21.496Z,38.40
2022-12-29T20:56:48.973Z,33.07
2022-12-29T20:59:31.460Z,31.50
2022-12-29T21:01:58.986Z,30.57
2022-12-29T21:04:26.548Z,30.27
2022-12-29T21:06:54.469Z,34.83
2022-12-29T21:09:21.695Z,37.80
2022-12-29T21:11:49.211Z,33.07
2022-12-29T21:14:16.326Z,32.50
2022-12-29T21:16:43.979Z,39.03
2022-12-29T21:19:10.977Z,33.00
2022-12-29T21:21:37.902Z,33.50
2022-12-29T21:24:08.410Z,36.37
2022-12-29T21:26:35.841Z,35.50
2022-12-29T21:29:03.473Z,35.07
2022-12-29T21:31:32.234Z,38.40
2022-12-29T21:33:59.524Z,31.87
2022-12-29T21:36:27.821Z,33.90
2022-12-29T21:38:56.056Z,34.27
2022-12-29T21:41:23.310Z,35.00
2022-12-29T21:44:10.034Z,36.47
2022-12-29T21:46:40.224Z,32.60
2022-12-29T21:49:07.815Z,32.60
2022-12-29T21:51:50.769Z,28.60
2022-12-29T21:54:44.709Z,37.80
2022-12-29T21:57:33.560Z,34.70
2022-12-29T22:00:19.864Z,30.00
2022-12-29T22:03:05.620Z,37.50
2022-12-29T22:05:50.944Z,38.20
2022-12-29T22:08:36.842Z,27.20
2022-12-29T22:11:27.339Z,35.90
2022-12-29T22:13:56.238Z,32.43
2022-12-29T22:16:25.234Z,33.53
2022-12-29T22:18:52.617Z,29.47
2022-12-29T22:21:20.052Z,34.30
2022-12-29T22:23:46.989Z,31.07
2022-12-29T22:26:15.603Z,31.53
2022-12-29T22:28:46.104Z,32.93
2022-12-29T22:31:29.158Z,34.63
2022-12-29T22:34:02.023Z,32.67
2022-12-29T22:36:29.986Z,32.30
2022-12-29T22:38:57.159Z,27.43
2022-12-29T22:41:24.404Z,29.50
2022-12-29T22:43:51.369Z,28.63
2022-12-29T22:46:18.294Z,29.77
2022-12-29T22:48:45.335Z,28.77
2022-12-29T22:51:12.250Z,26.00
2022-12-29T22:53:40.584Z,24.93
2022-12-29T22:56:11.943Z,30.30
2022-12-29T22:58:44.539Z,30.23
2022-12-29T23:01:14.884Z,34.33
2022-12-29T23:03:43.011Z,30.23
2022-12-29T23:06:14.163Z,31.63
2022-12-29T23:08:41.221Z,29.87
2022-12-29T23:11:11.702Z,32.70
2022-12-29T23:13:41.130Z,31.80
2022-12-29T23:16:08.498Z,34.67
2022-12-29T23:18:35.515Z,37.03
2022-12-29T23:21:02.659Z,36.60
2022-12-29T23:23:58.549Z,32.10
2022-12-29T23:26:39.028Z,36.03
2022-12-29T23:29:13.876Z,37.97
2022-12-29T23:31:41.338Z,35.30
2022-12-29T23:34:10.337Z,35.27
2022-12-29T23:36:37.397Z,42.37
2022-12-29T23:39:05.529Z,31.23
2022-12-29T23:41:32.525Z,31.90
2022-12-29T23:43:59.496Z,32.07
2022-12-29T23:46:29.531Z,31.20
2022-12-29T23:48:56.991Z,39.77
2022-12-29T23:51:24.132Z,35.10
2022-12-29T23:53:51.159Z,35.00
2022-12-29T23:56:22.530Z,30.43
2022-12-29T23:58:50.107Z,36.70
